sensor_id;sensor_type;location;lat;lon;timestamp;temperature;humidity
19555;DHT22;9924;50.828;6.440;2022-12-20T00:00:06;12.00;99.90
19555;DHT22;9924;50.828;6.440;2022-12-20T00:02:50;12.00;99.90
19555;DHT22;9924;50.828;6.440;2022-12-20T00:05:41;11.90;99.90
19555;DHT22;9924;50.828;6.440;2022-12-20T00:08:25;11.80;99.90
19555;DHT22;9924;50.828;6.440;2022-12-20T00:11:11;11.80;99.90
19555;DHT22;9924;50.828;6.440;2022-12-20T00:13:55;11.90;99.90
19555;DHT22;9924;50.828;6.440;2022-12-20T00:16:40;11.90;99.90
19555;DHT22;9924;50.828;6.440;2022-12-20T00:19:24;11.90;99.90
19555;DHT22;9924;50.828;6.440;2022-12-20T00:22:09;11.80;99.90
19555;DHT22;9924;50.828;6.440;2022-12-20T00:24:53;11.80;99.90
19555;DHT22;9924;50.828;6.440;2022-12-20T00:27:38;11.70;99.90
19555;DHT22;9924;50.828;6.440;2022-12-20T00:30:22;11.60;99.90
19555;DHT22;9924;50.828;6.440;2022-12-20T00:33:07;11.70;99.90
19555;DHT22;9924;50.828;6.440;2022-12-20T00:35:52;11.70;99.90
19555;DHT22;9924;50.828;6.440;2022-12-20T00:38:37;11.60;99.90
19555;DHT22;9924;50.828;6.440;2022-12-20T00:41:23;11.60;99.90
19555;DHT22;9924;50.828;6.440;2022-12-20T00:44:08;11.70;99.90
19555;DHT22;9924;50.828;6.440;2022-12-20T00:46:52;11.80;99.90
19555;DHT22;9924;50.828;6.440;2022-12-20T00:49:37;11.90;99.90
19555;DHT22;9924;50.828;6.440;2022-12-20T00:52:21;11.90;99.90
19555;DHT22;9924;50.828;6.440;2022-12-20T00:55:06;12.10;99.90
19555;DHT22;9924;50.828;6.440;2022-12-20T00:57:50;12.10;99.90
19555;DHT22;9924;50.828;6.440;2022-12-20T01:00:35;12.10;99.90
19555;DHT22;9924;50.828;6.440;2022-12-20T01:03:20;12.20;99.90
19555;DHT22;9924;50.828;6.440;2022-12-20T01:06:05;12.20;99.90
19555;DHT22;9924;50.828;6.440;2022-12-20T01:08:51;12.30;99.90
19555;DHT22;9924;50.828;6.440;2022-12-20T01:11:36;12.30;99.90
19555;DHT22;9924;50.828;6.440;2022-12-20T01:14:21;12.30;99.90
19555;DHT22;9924;50.828;6.440;2022-12-20T01:17:06;12.10;99.90
19555;DHT22;9924;50.828;6.440;2022-12-20T01:19:51;12.10;99.90
19555;DHT22;9924;50.828;6.440;2022-12-20T01:22:35;12.10;99.90
19555;DHT22;9924;50.828;6.440;2022-12-20T01:25:19;12.00;99.90
19555;DHT22;9924;50.828;6.440;2022-12-20T01:28:04;12.00;99.90
19555;DHT22;9924;50.828;6.440;2022-12-20T01:30:48;11.90;99.90
19555;DHT22;9924;50.828;6.440;2022-12-20T01:33:34;11.90;99.90
19555;DHT22;9924;50.828;6.440;2022-12-20T01:36:28;11.80;99.90
19555;DHT22;9924;50.828;6.440;2022-12-20T01:39:14;11.80;99.90
19555;DHT22;9924;50.828;6.440;2022-12-20T01:41:59;11.70;99.90
19555;DHT22;9924;50.828;6.440;2022-12-20T01:47:31;11.80;99.90
19555;DHT22;9924;50.828;6.440;2022-12-20T01:50:18;11.90;99.90
19555;DHT22;9924;50.828;6.440;2022-12-20T01:53:03;11.90;99.90
19555;DHT22;9924;50.828;6.440;2022-12-20T01:55:48;11.80;99.90
19555;DHT22;9924;50.828;6.440;2022-12-20T01:58:34;11.80;99.90
19555;DHT22;9924;50.828;6.440;2022-12-20T02:01:22;11.70;99.90
19555;DHT22;9924;50.828;6.440;2022-12-20T02:04:07;11.70;99.90
19555;DHT22;9924;50.828;6.440;2022-12-20T02:06:51;11.70;99.90
19555;DHT22;9924;50.828;6.440;2022-12-20T02:09:36;11.70;99.90
19555;DHT22;9924;50.828;6.440;2022-12-20T02:12:28;11.70;99.90
19555;DHT22;9924;50.828;6.440;2022-12-20T02:15:25;11.60;99.90
19555;DHT22;9924;50.828;6.440;2022-12-20T02:18:40;11.70;99.90
19555;DHT22;9924;50.828;6.440;2022-12-20T02:21:37;11.60;99.90
19555;DHT22;9924;50.828;6.440;2022-12-20T02:27:46;11.40;99.90
19555;DHT22;9924;50.828;6.440;2022-12-20T02:30:37;11.30;99.90
19555;DHT22;9924;50.828;6.440;2022-12-20T02:33:24;11.30;99.90
19555;DHT22;9924;50.828;6.440;2022-12-20T02:36:09;11.20;99.90
19555;DHT22;9924;50.828;6.440;2022-12-20T02:38:54;11.20;99.90
19555;DHT22;9924;50.828;6.440;2022-12-20T02:41:43;11.20;99.90
19555;DHT22;9924;50.828;6.440;2022-12-20T02:44:31;11.20;99.90
19555;DHT22;9924;50.828;6.440;2022-12-20T02:47:39;11.20;99.90
19555;DHT22;9924;50.828;6.440;2022-12-20T02:50:34;11.30;99.90
19555;DHT22;9924;50.828;6.440;2022-12-20T02:53:20;11.30;99.90
19555;DHT22;9924;50.828;6.440;2022-12-20T02:56:33;11.40;99.90
19555;DHT22;9924;50.828;6.440;2022-12-20T02:59:23;11.40;99.90
19555;DHT22;9924;50.828;6.440;2022-12-20T03:02:09;11.50;99.90
19555;DHT22;9924;50.828;6.440;2022-12-20T03:04:54;11.50;99.90
19555;DHT22;9924;50.828;6.440;2022-12-20T03:07:40;11.40;99.90
19555;DHT22;9924;50.828;6.440;2022-12-20T03:10:25;11.40;99.90
19555;DHT22;9924;50.828;6.440;2022-12-20T03:13:09;11.50;99.90
19555;DHT22;9924;50.828;6.440;2022-12-20T03:15:54;11.50;99.90
19555;DHT22;9924;50.828;6.440;2022-12-20T03:18:38;11.50;99.90
19555;DHT22;9924;50.828;6.440;2022-12-20T03:21:22;11.50;99.90
19555;DHT22;9924;50.828;6.440;2022-12-20T03:24:07;11.40;99.90
19555;DHT22;9924;50.828;6.440;2022-12-20T03:26:51;11.40;99.90
19555;DHT22;9924;50.828;6.440;2022-12-20T03:29:35;11.40;99.90
19555;DHT22;9924;50.828;6.440;2022-12-20T03:32:21;11.30;99.90
19555;DHT22;9924;50.828;6.440;2022-12-20T03:35:05;11.30;99.90
19555;DHT22;9924;50.828;6.440;2022-12-20T03:37:50;11.20;99.90
19555;DHT22;9924;50.828;6.440;2022-12-20T03:40:34;11.20;99.90
19555;DHT22;9924;50.828;6.440;2022-12-20T03:43:18;11.10;99.90
19555;DHT22;9924;50.828;6.440;2022-12-20T03:46:02;11.00;99.90
19555;DHT22;9924;50.828;6.440;2022-12-20T03:48:47;10.90;99.90
19555;DHT22;9924;50.828;6.440;2022-12-20T03:51:31;10.80;99.90
19555;DHT22;9924;50.828;6.440;2022-12-20T03:54:16;10.80;99.90
19555;DHT22;9924;50.828;6.440;2022-12-20T03:57:00;10.80;99.90
19555;DHT22;9924;50.828;6.440;2022-12-20T03:59:45;10.80;99.90
19555;DHT22;9924;50.828;6.440;2022-12-20T04:02:29;10.90;99.90
19555;DHT22;9924;50.828;6.440;2022-12-20T04:05:14;10.90;99.90
19555;DHT22;9924;50.828;6.440;2022-12-20T04:07:59;11.00;99.90
19555;DHT22;9924;50.828;6.440;2022-12-20T04:10:44;11.00;99.90
19555;DHT22;9924;50.828;6.440;2022-12-20T04:13:52;11.10;99.90
19555;DHT22;9924;50.828;6.440;2022-12-20T04:16:37;11.20;99.90
19555;DHT22;9924;50.828;6.440;2022-12-20T04:19:21;11.30;99.90
19555;DHT22;9924;50.828;6.440;2022-12-20T04:22:05;11.30;99.90
19555;DHT22;9924;50.828;6.440;2022-12-20T04:24:50;11.20;99.90
19555;DHT22;9924;50.828;6.440;2022-12-20T04:27:34;11.20;99.90
19555;DHT22;9924;50.828;6.440;2022-12-20T04:30:18;11.20;99.90
19555;DHT22;9924;50.828;6.440;2022-12-20T04:33:03;11.20;99.90
19555;DHT22;9924;50.828;6.440;2022-12-20T04:35:47;11.20;99.90
19555;DHT22;9924;50.828;6.440;2022-12-20T04:38:32;11.20;99.90
19555;DHT22;9924;50.828;6.440;2022-12-20T04:41:16;11.20;99.90
19555;DHT22;9924;50.828;6.440;2022-12-20T04:44:07;11.20;99.90
19555;DHT22;9924;50.828;6.440;2022-12-20T04:46:51;11.30;99.90
19555;DHT22;9924;50.828;6.440;2022-12-20T04:49:36;11.40;99.90
19555;DHT22;9924;50.828;6.440;2022-12-20T04:52:20;11.40;99.90
19555;DHT22;9924;50.828;6.440;2022-12-20T04:55:23;11.40;99.90
19555;DHT22;9924;50.828;6.440;2022-12-20T04:58:08;11.40;99.90
19555;DHT22;9924;50.828;6.440;2022-12-20T05:00:52;11.30;99.90
19555;DHT22;9924;50.828;6.440;2022-12-20T05:03:37;11.30;99.90
19555;DHT22;9924;50.828;6.440;2022-12-20T05:06:21;11.30;99.90
19555;DHT22;9924;50.828;6.440;2022-12-20T05:09:06;11.20;99.90
19555;DHT22;9924;50.828;6.440;2022-12-20T05:11:50;11.20;99.90
19555;DHT22;9924;50.828;6.440;2022-12-20T05:14:34;11.10;99.90
19555;DHT22;9924;50.828;6.440;2022-12-20T05:17:18;11.20;99.90
19555;DHT22;9924;50.828;6.440;2022-12-20T05:20:04;11.20;99.90
19555;DHT22;9924;50.828;6.440;2022-12-20T05:22:49;11.10;99.90
19555;DHT22;9924;50.828;6.440;2022-12-20T05:25:53;11.10;99.90
19555;DHT22;9924;50.828;6.440;2022-12-20T05:28:56;11.10;99.90
19555;DHT22;9924;50.828;6.440;2022-12-20T05:31:40;11.10;99.90
19555;DHT22;9924;50.828;6.440;2022-12-20T05:34:25;11.10;99.90
19555;DHT22;9924;50.828;6.440;2022-12-20T05:37:09;11.10;99.90
19555;DHT22;9924;50.828;6.440;2022-12-20T05:39:53;11.10;99.90
19555;DHT22;9924;50.828;6.440;2022-12-20T05:42:37;11.10;99.90
19555;DHT22;9924;50.828;6.440;2022-12-20T05:45:22;11.20;99.90
19555;DHT22;9924;50.828;6.440;2022-12-20T05:48:06;11.10;99.90
19555;DHT22;9924;50.828;6.440;2022-12-20T05:50:51;11.10;99.90
19555;DHT22;9924;50.828;6.440;2022-12-20T05:53:35;11.00;99.90
19555;DHT22;9924;50.828;6.440;2022-12-20T05:56:20;11.00;99.90
19555;DHT22;9924;50.828;6.440;2022-12-20T05:59:04;11.10;99.90
19555;DHT22;9924;50.828;6.440;2022-12-20T06:01:49;11.20;99.90
19555;DHT22;9924;50.828;6.440;2022-12-20T06:04:33;11.10;99.90
19555;DHT22;9924;50.828;6.440;2022-12-20T06:07:17;11.20;99.90
19555;DHT22;9924;50.828;6.440;2022-12-20T06:10:02;11.20;99.90
19555;DHT22;9924;50.828;6.440;2022-12-20T06:12:47;11.20;99.90
19555;DHT22;9924;50.828;6.440;2022-12-20T06:15:31;11.20;99.90
19555;DHT22;9924;50.828;6.440;2022-12-20T06:18:16;11.20;99.90
19555;DHT22;9924;50.828;6.440;2022-12-20T06:21:00;11.20;99.90
19555;DHT22;9924;50.828;6.440;2022-12-20T06:23:45;11.10;99.90
19555;DHT22;9924;50.828;6.440;2022-12-20T06:26:29;11.10;99.90
19555;DHT22;9924;50.828;6.440;2022-12-20T06:29:19;11.10;99.90
19555;DHT22;9924;50.828;6.440;2022-12-20T06:32:04;11.30;99.90
19555;DHT22;9924;50.828;6.440;2022-12-20T06:34:49;11.30;99.90
19555;DHT22;9924;50.828;6.440;2022-12-20T06:37:34;11.30;99.90
19555;DHT22;9924;50.828;6.440;2022-12-20T06:40:19;11.30;99.90
19555;DHT22;9924;50.828;6.440;2022-12-20T06:43:04;11.40;99.90
19555;DHT22;9924;50.828;6.440;2022-12-20T06:45:48;11.40;99.90
19555;DHT22;9924;50.828;6.440;2022-12-20T06:48:33;11.50;99.90
19555;DHT22;9924;50.828;6.440;2022-12-20T06:51:17;11.50;99.90
19555;DHT22;9924;50.828;6.440;2022-12-20T06:54:02;11.50;99.90
19555;DHT22;9924;50.828;6.440;2022-12-20T06:56:47;11.50;99.90
19555;DHT22;9924;50.828;6.440;2022-12-20T06:59:31;11.50;99.90
19555;DHT22;9924;50.828;6.440;2022-12-20T07:02:15;11.50;99.90
19555;DHT22;9924;50.828;6.440;2022-12-20T07:05:00;11.50;99.90
19555;DHT22;9924;50.828;6.440;2022-12-20T07:07:45;11.50;99.90
19555;DHT22;9924;50.828;6.440;2022-12-20T07:10:32;11.40;99.90
19555;DHT22;9924;50.828;6.440;2022-12-20T07:13:17;11.50;99.90
19555;DHT22;9924;50.828;6.440;2022-12-20T07:16:03;11.60;99.90
19555;DHT22;9924;50.828;6.440;2022-12-20T07:18:51;11.60;99.90
19555;DHT22;9924;50.828;6.440;2022-12-20T07:21:35;11.60;99.90
19555;DHT22;9924;50.828;6.440;2022-12-20T07:24:20;11.70;99.90
19555;DHT22;9924;50.828;6.440;2022-12-20T07:27:04;11.70;99.90
19555;DHT22;9924;50.828;6.440;2022-12-20T07:29:50;11.70;99.90
19555;DHT22;9924;50.828;6.440;2022-12-20T07:32:34;11.60;99.90
19555;DHT22;9924;50.828;6.440;2022-12-20T07:35:19;11.60;99.90
19555;DHT22;9924;50.828;6.440;2022-12-20T07:38:03;11.50;99.90
19555;DHT22;9924;50.828;6.440;2022-12-20T07:40:47;11.50;99.90
19555;DHT22;9924;50.828;6.440;2022-12-20T07:43:32;11.40;99.90
19555;DHT22;9924;50.828;6.440;2022-12-20T07:46:17;11.50;99.90
19555;DHT22;9924;50.828;6.440;2022-12-20T07:49:01;11.60;99.90
19555;DHT22;9924;50.828;6.440;2022-12-20T07:51:52;11.50;99.90
19555;DHT22;9924;50.828;6.440;2022-12-20T07:54:42;11.50;99.90
19555;DHT22;9924;50.828;6.440;2022-12-20T07:57:33;11.50;99.90
19555;DHT22;9924;50.828;6.440;2022-12-20T08:00:19;11.60;99.90
19555;DHT22;9924;50.828;6.440;2022-12-20T08:03:28;11.60;99.90
19555;DHT22;9924;50.828;6.440;2022-12-20T08:06:16;11.60;99.90
19555;DHT22;9924;50.828;6.440;2022-12-20T08:09:04;11.60;99.90
19555;DHT22;9924;50.828;6.440;2022-12-20T08:11:49;11.60;99.90
19555;DHT22;9924;50.828;6.440;2022-12-20T08:14:34;11.60;99.90
19555;DHT22;9924;50.828;6.440;2022-12-20T08:17:18;11.60;99.90
19555;DHT22;9924;50.828;6.440;2022-12-20T08:20:03;11.50;99.90
19555;DHT22;9924;50.828;6.440;2022-12-20T08:22:49;11.60;99.90
19555;DHT22;9924;50.828;6.440;2022-12-20T08:25:34;11.50;99.90
19555;DHT22;9924;50.828;6.440;2022-12-20T08:28:18;11.50;99.90
19555;DHT22;9924;50.828;6.440;2022-12-20T08:31:05;11.50;99.90
19555;DHT22;9924;50.828;6.440;2022-12-20T08:33:53;11.50;99.90
19555;DHT22;9924;50.828;6.440;2022-12-20T08:36:38;11.70;99.90
19555;DHT22;9924;50.828;6.440;2022-12-20T08:39:22;11.60;99.90
19555;DHT22;9924;50.828;6.440;2022-12-20T08:42:06;11.70;99.90
19555;DHT22;9924;50.828;6.440;2022-12-20T08:44:51;11.80;99.90
19555;DHT22;9924;50.828;6.440;2022-12-20T08:47:35;11.70;99.90
19555;DHT22;9924;50.828;6.440;2022-12-20T08:50:20;11.70;99.90
19555;DHT22;9924;50.828;6.440;2022-12-20T08:53:04;11.80;99.90
19555;DHT22;9924;50.828;6.440;2022-12-20T08:55:49;11.90;99.90
19555;DHT22;9924;50.828;6.440;2022-12-20T08:58:34;12.00;99.90
19555;DHT22;9924;50.828;6.440;2022-12-20T09:01:20;12.10;99.90
19555;DHT22;9924;50.828;6.440;2022-12-20T09:04:04;12.10;99.90
19555;DHT22;9924;50.828;6.440;2022-12-20T09:06:49;12.10;99.90
19555;DHT22;9924;50.828;6.440;2022-12-20T09:09:33;12.10;99.90
19555;DHT22;9924;50.828;6.440;2022-12-20T09:12:18;12.20;99.90
19555;DHT22;9924;50.828;6.440;2022-12-20T09:15:02;12.20;99.90
19555;DHT22;9924;50.828;6.440;2022-12-20T09:17:47;12.30;99.90
19555;DHT22;9924;50.828;6.440;2022-12-20T09:20:31;12.30;99.90
19555;DHT22;9924;50.828;6.440;2022-12-20T09:23:16;12.30;99.90
19555;DHT22;9924;50.828;6.440;2022-12-20T09:26:05;12.30;99.90
19555;DHT22;9924;50.828;6.440;2022-12-20T09:28:50;12.30;99.90
19555;DHT22;9924;50.828;6.440;2022-12-20T09:31:34;12.30;99.90
19555;DHT22;9924;50.828;6.440;2022-12-20T09:34:20;12.20;99.90
19555;DHT22;9924;50.828;6.440;2022-12-20T09:37:04;12.20;99.90
19555;DHT22;9924;50.828;6.440;2022-12-20T09:39:49;12.20;99.90
19555;DHT22;9924;50.828;6.440;2022-12-20T09:42:35;12.20;99.90
19555;DHT22;9924;50.828;6.440;2022-12-20T09:45:26;12.20;99.90
19555;DHT22;9924;50.828;6.440;2022-12-20T09:48:23;12.20;99.90
19555;DHT22;9924;50.828;6.440;2022-12-20T09:54:32;12.30;99.90
19555;DHT22;9924;50.828;6.440;2022-12-20T09:57:40;12.50;99.90
19555;DHT22;9924;50.828;6.440;2022-12-20T10:00:27;12.50;99.90
19555;DHT22;9924;50.828;6.440;2022-12-20T10:03:28;12.70;99.90
19555;DHT22;9924;50.828;6.440;2022-12-20T10:09:09;12.90;99.90
19555;DHT22;9924;50.828;6.440;2022-12-20T10:15:53;13.10;99.90
19555;DHT22;9924;50.828;6.440;2022-12-20T10:25:16;13.20;99.90
19555;DHT22;9924;50.828;6.440;2022-12-20T10:28:04;13.20;99.90
19555;DHT22;9924;50.828;6.440;2022-12-20T10:30:57;13.30;99.90
19555;DHT22;9924;50.828;6.440;2022-12-20T10:33:41;13.40;99.90
19555;DHT22;9924;50.828;6.440;2022-12-20T10:39:10;13.50;99.90
19555;DHT22;9924;50.828;6.440;2022-12-20T10:41:55;13.60;99.90
19555;DHT22;9924;50.828;6.440;2022-12-20T10:44:39;13.70;99.90
19555;DHT22;9924;50.828;6.440;2022-12-20T10:47:37;13.60;99.90
19555;DHT22;9924;50.828;6.440;2022-12-20T10:50:24;13.60;99.90
19555;DHT22;9924;50.828;6.440;2022-12-20T10:56:05;13.40;99.90
19555;DHT22;9924;50.828;6.440;2022-12-20T10:58:56;13.30;99.90
19555;DHT22;9924;50.828;6.440;2022-12-20T11:01:43;13.40;99.90
19555;DHT22;9924;50.828;6.440;2022-12-20T11:04:31;13.30;99.90
19555;DHT22;9924;50.828;6.440;2022-12-20T11:07:25;13.30;99.90
19555;DHT22;9924;50.828;6.440;2022-12-20T11:10:21;13.20;99.90
19555;DHT22;9924;50.828;6.440;2022-12-20T11:13:19;13.20;99.90
19555;DHT22;9924;50.828;6.440;2022-12-20T11:16:03;13.20;99.90
19555;DHT22;9924;50.828;6.440;2022-12-20T11:19:05;13.30;99.90
19555;DHT22;9924;50.828;6.440;2022-12-20T11:31:30;13.20;99.90
19555;DHT22;9924;50.828;6.440;2022-12-20T11:41:10;12.90;99.90
19555;DHT22;9924;50.828;6.440;2022-12-20T11:50:55;13.10;99.90
19555;DHT22;9924;50.828;6.440;2022-12-20T11:53:42;13.20;99.90
19555;DHT22;9924;50.828;6.440;2022-12-20T11:56:37;13.10;99.90
19555;DHT22;9924;50.828;6.440;2022-12-20T11:59:34;13.20;99.90
19555;DHT22;9924;50.828;6.440;2022-12-20T12:02:23;13.20;99.90
19555;DHT22;9924;50.828;6.440;2022-12-20T12:06:05;13.10;99.90
19555;DHT22;9924;50.828;6.440;2022-12-20T12:08:40;13.10;99.90
19555;DHT22;9924;50.828;6.440;2022-12-20T12:11:33;13.00;99.90
19555;DHT22;9924;50.828;6.440;2022-12-20T12:14:42;13.10;99.90
19555;DHT22;9924;50.828;6.440;2022-12-20T12:17:41;13.10;99.90
19555;DHT22;9924;50.828;6.440;2022-12-20T12:23:43;13.10;99.90
19555;DHT22;9924;50.828;6.440;2022-12-20T12:26:35;13.10;99.90
19555;DHT22;9924;50.828;6.440;2022-12-20T12:29:22;13.20;99.90
19555;DHT22;9924;50.828;6.440;2022-12-20T12:32:19;13.10;99.90
19555;DHT22;9924;50.828;6.440;2022-12-20T12:38:15;13.10;99.90
19555;DHT22;9924;50.828;6.440;2022-12-20T12:41:24;13.10;99.90
19555;DHT22;9924;50.828;6.440;2022-12-20T12:47:23;13.40;99.90
19555;DHT22;9924;50.828;6.440;2022-12-20T12:50:13;13.40;99.90
19555;DHT22;9924;50.828;6.440;2022-12-20T12:53:12;13.40;99.90
19555;DHT22;9924;50.828;6.440;2022-12-20T13:05:28;13.50;99.90
19555;DHT22;9924;50.828;6.440;2022-12-20T13:08:15;13.60;99.90
19555;DHT22;9924;50.828;6.440;2022-12-20T13:11:01;13.60;99.90
19555;DHT22;9924;50.828;6.440;2022-12-20T13:13:46;13.60;99.90
19555;DHT22;9924;50.828;6.440;2022-12-20T13:16:31;13.60;99.90
19555;DHT22;9924;50.828;6.440;2022-12-20T13:22:19;13.60;99.90
19555;DHT22;9924;50.828;6.440;2022-12-20T13:25:27;13.70;99.90
19555;DHT22;9924;50.828;6.440;2022-12-20T13:33:52;13.60;99.90
19555;DHT22;9924;50.828;6.440;2022-12-20T13:36:37;13.60;99.90
19555;DHT22;9924;50.828;6.440;2022-12-20T13:42:26;13.60;99.90
19555;DHT22;9924;50.828;6.440;2022-12-20T13:45:14;13.60;99.90
19555;DHT22;9924;50.828;6.440;2022-12-20T13:48:02;13.60;99.90
19555;DHT22;9924;50.828;6.440;2022-12-20T13:50:50;13.50;99.90
19555;DHT22;9924;50.828;6.440;2022-12-20T13:53:36;13.40;99.90
19555;DHT22;9924;50.828;6.440;2022-12-20T13:56:47;13.30;99.90
19555;DHT22;9924;50.828;6.440;2022-12-20T13:59:33;13.30;99.90
19555;DHT22;9924;50.828;6.440;2022-12-20T14:02:21;13.30;99.90
19555;DHT22;9924;50.828;6.440;2022-12-20T14:08:04;13.40;99.90
19555;DHT22;9924;50.828;6.440;2022-12-20T14:10:51;13.60;99.90
19555;DHT22;9924;50.828;6.440;2022-12-20T14:13:35;13.70;99.90
19555;DHT22;9924;50.828;6.440;2022-12-20T14:16:20;13.70;99.90
19555;DHT22;9924;50.828;6.440;2022-12-20T14:19:13;13.70;99.90
19555;DHT22;9924;50.828;6.440;2022-12-20T14:21:57;13.60;99.90
19555;DHT22;9924;50.828;6.440;2022-12-20T14:24:43;13.70;99.90
19555;DHT22;9924;50.828;6.440;2022-12-20T14:27:33;13.80;99.90
19555;DHT22;9924;50.828;6.440;2022-12-20T14:30:44;13.80;99.90
19555;DHT22;9924;50.828;6.440;2022-12-20T14:33:40;13.90;99.90
19555;DHT22;9924;50.828;6.440;2022-12-20T14:36:25;13.90;99.90
19555;DHT22;9924;50.828;6.440;2022-12-20T14:39:22;13.80;99.90
19555;DHT22;9924;50.828;6.440;2022-12-20T14:45:02;13.70;99.90
19555;DHT22;9924;50.828;6.440;2022-12-20T14:47:59;13.50;99.90
19555;DHT22;9924;50.828;6.440;2022-12-20T14:50:52;13.30;99.90
19555;DHT22;9924;50.828;6.440;2022-12-20T14:53:38;13.10;99.90
19555;DHT22;9924;50.828;6.440;2022-12-20T14:56:23;13.00;99.90
19555;DHT22;9924;50.828;6.440;2022-12-20T14:59:16;12.90;99.90
19555;DHT22;9924;50.828;6.440;2022-12-20T15:02:32;12.80;99.90
19555;DHT22;9924;50.828;6.440;2022-12-20T15:08:31;12.60;99.90
19555;DHT22;9924;50.828;6.440;2022-12-20T15:11:20;12.50;99.90
19555;DHT22;9924;50.828;6.440;2022-12-20T15:14:31;12.50;99.90
19555;DHT22;9924;50.828;6.440;2022-12-20T15:17:16;12.40;99.90
19555;DHT22;9924;50.828;6.440;2022-12-20T15:20:03;12.40;99.90
19555;DHT22;9924;50.828;6.440;2022-12-20T15:22:47;12.40;99.90
19555;DHT22;9924;50.828;6.440;2022-12-20T15:25:33;12.30;99.90
19555;DHT22;9924;50.828;6.440;2022-12-20T15:28:24;12.20;99.90
19555;DHT22;9924;50.828;6.440;2022-12-20T15:31:13;12.20;99.90
19555;DHT22;9924;50.828;6.440;2022-12-20T15:33:58;12.10;99.90
19555;DHT22;9924;50.828;6.440;2022-12-20T15:36:43;12.10;99.90
19555;DHT22;9924;50.828;6.440;2022-12-20T15:39:28;12.10;99.90
19555;DHT22;9924;50.828;6.440;2022-12-20T15:42:14;12.00;99.90
19555;DHT22;9924;50.828;6.440;2022-12-20T15:45:00;12.00;99.90
19555;DHT22;9924;50.828;6.440;2022-12-20T15:47:47;11.90;99.90
19555;DHT22;9924;50.828;6.440;2022-12-20T15:50:31;11.90;99.90
19555;DHT22;9924;50.828;6.440;2022-12-20T15:53:22;12.00;99.90
19555;DHT22;9924;50.828;6.440;2022-12-20T15:56:18;11.90;99.90
19555;DHT22;9924;50.828;6.440;2022-12-20T15:59:02;11.90;99.90
19555;DHT22;9924;50.828;6.440;2022-12-20T16:01:47;11.80;99.90
19555;DHT22;9924;50.828;6.440;2022-12-20T16:04:31;11.70;99.90
19555;DHT22;9924;50.828;6.440;2022-12-20T16:07:15;11.80;99.90
19555;DHT22;9924;50.828;6.440;2022-12-20T16:10:00;11.90;99.90
19555;DHT22;9924;50.828;6.440;2022-12-20T16:12:45;11.90;99.90
19555;DHT22;9924;50.828;6.440;2022-12-20T16:15:29;12.00;99.90
19555;DHT22;9924;50.828;6.440;2022-12-20T16:18:14;12.00;99.90
19555;DHT22;9924;50.828;6.440;2022-12-20T16:20:59;12.00;99.90
19555;DHT22;9924;50.828;6.440;2022-12-20T16:23:47;12.00;99.90
19555;DHT22;9924;50.828;6.440;2022-12-20T16:26:34;11.90;99.90
19555;DHT22;9924;50.828;6.440;2022-12-20T16:29:18;11.90;99.90
19555;DHT22;9924;50.828;6.440;2022-12-20T16:32:02;11.90;99.90
19555;DHT22;9924;50.828;6.440;2022-12-20T16:34:53;11.90;99.90
19555;DHT22;9924;50.828;6.440;2022-12-20T16:37:38;11.80;99.90
19555;DHT22;9924;50.828;6.440;2022-12-20T16:40:24;11.80;99.90
19555;DHT22;9924;50.828;6.440;2022-12-20T16:43:13;11.70;99.90
19555;DHT22;9924;50.828;6.440;2022-12-20T16:45:58;11.70;99.90
19555;DHT22;9924;50.828;6.440;2022-12-20T16:48:43;11.60;99.90
19555;DHT22;9924;50.828;6.440;2022-12-20T16:54:17;11.60;99.90
19555;DHT22;9924;50.828;6.440;2022-12-20T16:57:02;11.50;99.90
19555;DHT22;9924;50.828;6.440;2022-12-20T16:59:47;11.40;99.90
19555;DHT22;9924;50.828;6.440;2022-12-20T17:02:33;11.40;99.90
19555;DHT22;9924;50.828;6.440;2022-12-20T17:08:08;11.30;99.90
19555;DHT22;9924;50.828;6.440;2022-12-20T17:10:53;11.30;99.90
19555;DHT22;9924;50.828;6.440;2022-12-20T17:13:38;11.30;99.90
19555;DHT22;9924;50.828;6.440;2022-12-20T17:16:23;11.30;99.90
19555;DHT22;9924;50.828;6.440;2022-12-20T17:19:08;11.50;99.90
19555;DHT22;9924;50.828;6.440;2022-12-20T17:21:54;11.60;99.90
19555;DHT22;9924;50.828;6.440;2022-12-20T17:24:41;11.70;99.90
19555;DHT22;9924;50.828;6.440;2022-12-20T17:27:26;11.70;99.90
19555;DHT22;9924;50.828;6.440;2022-12-20T17:30:12;11.70;99.90
19555;DHT22;9924;50.828;6.440;2022-12-20T17:32:57;11.70;99.90
19555;DHT22;9924;50.828;6.440;2022-12-20T17:35:42;11.70;99.90
19555;DHT22;9924;50.828;6.440;2022-12-20T17:38:26;11.80;99.90
19555;DHT22;9924;50.828;6.440;2022-12-20T17:41:22;11.80;99.90
19555;DHT22;9924;50.828;6.440;2022-12-20T17:44:10;11.80;99.90
19555;DHT22;9924;50.828;6.440;2022-12-20T17:47:01;11.80;99.90
19555;DHT22;9924;50.828;6.440;2022-12-20T17:49:46;11.80;99.90
19555;DHT22;9924;50.828;6.440;2022-12-20T17:52:30;11.70;99.90
19555;DHT22;9924;50.828;6.440;2022-12-20T17:55:21;11.70;99.90
19555;DHT22;9924;50.828;6.440;2022-12-20T17:58:05;11.70;99.90
19555;DHT22;9924;50.828;6.440;2022-12-20T18:00:50;11.70;99.90
19555;DHT22;9924;50.828;6.440;2022-12-20T18:03:34;11.70;99.90
19555;DHT22;9924;50.828;6.440;2022-12-20T18:06:19;11.70;99.90
19555;DHT22;9924;50.828;6.440;2022-12-20T18:09:06;11.70;99.90
19555;DHT22;9924;50.828;6.440;2022-12-20T18:11:51;11.80;99.90
19555;DHT22;9924;50.828;6.440;2022-12-20T18:14:35;11.80;99.90
19555;DHT22;9924;50.828;6.440;2022-12-20T18:17:19;11.70;99.90
19555;DHT22;9924;50.828;6.440;2022-12-20T18:20:05;11.60;99.90
19555;DHT22;9924;50.828;6.440;2022-12-20T18:22:50;11.60;99.90
19555;DHT22;9924;50.828;6.440;2022-12-20T18:25:34;11.50;99.90
19555;DHT22;9924;50.828;6.440;2022-12-20T18:28:20;11.50;99.90
19555;DHT22;9924;50.828;6.440;2022-12-20T18:31:06;11.50;99.90
19555;DHT22;9924;50.828;6.440;2022-12-20T18:33:52;11.50;99.90
19555;DHT22;9924;50.828;6.440;2022-12-20T18:36:36;11.60;99.90
19555;DHT22;9924;50.828;6.440;2022-12-20T18:39:21;11.70;99.90
19555;DHT22;9924;50.828;6.440;2022-12-20T18:42:06;11.90;99.90
19555;DHT22;9924;50.828;6.440;2022-12-20T18:44:52;12.00;99.90
19555;DHT22;9924;50.828;6.440;2022-12-20T18:47:36;12.00;99.90
19555;DHT22;9924;50.828;6.440;2022-12-20T18:50:21;12.00;99.90
19555;DHT22;9924;50.828;6.440;2022-12-20T18:53:05;12.00;99.90
19555;DHT22;9924;50.828;6.440;2022-12-20T18:56:00;12.10;99.90
19555;DHT22;9924;50.828;6.440;2022-12-20T18:58:46;12.10;99.90
19555;DHT22;9924;50.828;6.440;2022-12-20T19:01:32;12.10;99.90
19555;DHT22;9924;50.828;6.440;2022-12-20T19:04:17;12.10;99.90
19555;DHT22;9924;50.828;6.440;2022-12-20T19:07:01;12.10;99.90
19555;DHT22;9924;50.828;6.440;2022-12-20T19:09:45;12.20;99.90
19555;DHT22;9924;50.828;6.440;2022-12-20T19:12:30;12.20;99.90
19555;DHT22;9924;50.828;6.440;2022-12-20T19:15:15;12.20;99.90
19555;DHT22;9924;50.828;6.440;2022-12-20T19:18:00;12.10;99.90
19555;DHT22;9924;50.828;6.440;2022-12-20T19:20:45;12.00;99.90
19555;DHT22;9924;50.828;6.440;2022-12-20T19:23:30;11.90;99.90
19555;DHT22;9924;50.828;6.440;2022-12-20T19:26:19;11.90;99.90
19555;DHT22;9924;50.828;6.440;2022-12-20T19:29:10;11.80;99.90